Time;durP1;ratioP1;P1;durP2;ratioP2;P2;SDS_P1;SDS_P2;PMS_P1;PMS_P2;Temp;Humidity;BMP_temperature;BMP_pressure;BME280_temperature;BME280_humidity;BME280_pressure;Samples;Min_cycle;Max_cycle;Signal;HPM_P1;HPM_P2
2022/04/12 00:01:35;;;;;;;5.75;2.22;;;;;;;13.22;43.89;101016.56;5115940;28;20047;-68
2022/04/12 00:04:04;;;;;;;3.25;2.10;;;;;;;13.22;44.34;101010.34;5117202;28;20067;-68
2022/04/12 00:06:32;;;;;;;4.10;2.10;;;;;;;13.21;43.88;101014.94;5115697;28;20103;-67
2022/04/12 00:09:01;;;;;;;3.47;2.35;;;;;;;13.18;44.12;101011.88;5114058;28;20075;-67
2022/04/12 00:11:29;;;;;;;4.57;2.50;;;;;;;13.18;43.93;101012.69;5110772;28;20087;-67
2022/04/12 00:13:56;;;;;;;6.75;2.30;;;;;;;13.18;43.99;101003.78;5111140;28;20105;-67
2022/04/12 00:16:24;;;;;;;2.97;2.10;;;;;;;13.16;44.41;101000.47;5114772;28;20182;-67
2022/04/12 00:19:03;;;;;;;4.80;2.40;;;;;;;13.15;44.17;101001.53;5110108;28;20098;-67
2022/04/12 00:21:34;;;;;;;4.28;2.42;;;;;;;13.15;44.21;100993.44;5109739;28;20048;-67
2022/04/12 00:24:05;;;;;;;3.15;2.05;;;;;;;13.12;44.04;100992.03;5113430;28;20056;-68
2022/04/12 00:26:34;;;;;;;3.33;2.25;;;;;;;13.12;44.01;100994.72;5110126;27;20075;-67
2022/04/12 00:29:02;;;;;;;3.90;1.95;;;;;;;13.12;44.02;100988.50;5104091;28;20080;-67
2022/04/12 00:31:31;;;;;;;6.63;2.15;;;;;;;13.09;43.95;100994.38;5105031;28;20079;-66
2022/04/12 00:33:59;;;;;;;5.80;2.08;;;;;;;13.05;44.33;100988.63;5114681;28;20058;-67
2022/04/12 00:36:27;;;;;;;3.90;2.35;;;;;;;13.00;44.33;100983.09;5123757;27;20047;-67
2022/04/12 00:38:55;;;;;;;4.25;2.40;;;;;;;13.06;44.05;100998.34;5116560;28;20101;-67
2022/04/12 00:41:24;;;;;;;3.92;2.00;;;;;;;13.06;44.32;100994.84;5123072;28;20051;-67
2022/04/12 00:43:51;;;;;;;7.18;2.25;;;;;;;13.02;44.11;100998.00;5110857;28;20067;-67
2022/04/12 00:46:19;;;;;;;5.63;2.13;;;;;;;13.03;44.13;100993.44;5114014;27;20123;-67
2022/04/12 00:48:47;;;;;;;3.47;2.25;;;;;;;13.00;44.19;100989.31;5115282;28;20073;-67
2022/04/12 00:51:15;;;;;;;4.93;2.47;;;;;;;12.98;44.22;100996.81;5119670;28;20069;-67
2022/04/12 00:53:43;;;;;;;2.63;1.75;;;;;;;12.98;44.33;100986.03;5114920;28;20446;-67
2022/04/12 00:56:11;;;;;;;4.65;2.40;;;;;;;12.96;44.17;100987.31;5122967;28;20048;-68
2022/04/12 00:58:45;;;;;;;3.28;2.13;;;;;;;12.96;44.19;100984.63;5108615;28;20109;-67
2022/04/12 01:01:12;;;;;;;4.35;2.05;;;;;;;12.95;44.19;100991.06;5121173;27;20048;-67
2022/04/12 01:03:40;;;;;;;5.85;2.45;;;;;;;12.92;44.08;100988.84;5115993;28;20396;-67
2022/04/12 01:06:08;;;;;;;4.68;2.00;;;;;;;12.89;44.22;100998.22;5112609;28;20089;-67
2022/04/12 01:08:36;;;;;;;5.15;2.30;;;;;;;12.91;44.06;100998.00;5119785;28;20054;-67
2022/04/12 01:11:07;;;;;;;4.88;2.13;;;;;;;12.89;44.35;100984.75;5105758;28;20047;-67
2022/04/12 01:13:35;;;;;;;4.40;2.25;;;;;;;12.89;44.16;100981.22;5112078;28;20472;-67
2022/04/12 01:16:06;;;;;;;2.75;1.90;;;;;;;12.87;44.07;100978.75;5118977;28;20051;-68
2022/04/12 01:18:35;;;;;;;4.30;2.35;;;;;;;12.85;44.36;100980.03;5117073;28;20095;-67
2022/04/12 01:21:03;;;;;;;3.33;2.10;;;;;;;12.86;44.23;100981.69;5121731;28;20082;-67
2022/04/12 01:23:35;;;;;;;3.03;2.03;;;;;;;12.85;44.21;100980.03;5115332;28;20091;-68
2022/04/12 01:26:04;;;;;;;4.35;2.75;;;;;;;12.85;44.47;100991.66;5121223;28;20551;-68
2022/04/12 01:28:31;;;;;;;3.42;1.90;;;;;;;12.83;44.32;100987.53;5110543;28;20050;-68
2022/04/12 01:30:59;;;;;;;2.38;1.98;;;;;;;12.82;44.23;100996.69;5123825;28;20047;-68
2022/04/12 01:33:27;;;;;;;5.45;2.28;;;;;;;12.82;44.39;100985.91;5119060;28;20048;-67
2022/04/12 01:35:55;;;;;;;3.95;2.30;;;;;;;12.82;44.51;100980.50;5118229;28;20054;-67
2022/04/12 01:38:23;;;;;;;3.10;1.80;;;;;;;12.80;44.59;100982.63;5115784;28;20091;-66
2022/04/12 01:40:51;;;;;;;4.30;1.88;;;;;;;12.80;44.69;100982.63;5112751;28;20052;-67
2022/04/12 01:43:20;;;;;;;5.30;2.13;;;;;;;12.74;44.49;100980.84;5112891;28;20047;-67
2022/04/12 01:45:48;;;;;;;6.40;2.55;;;;;;;12.77;44.49;100985.78;5116991;28;20048;-67
2022/04/12 01:48:16;;;;;;;5.82;2.08;;;;;;;12.76;44.54;100984.97;5109701;28;20044;-67
2022/04/12 01:50:43;;;;;;;3.53;1.88;;;;;;;12.75;44.47;100982.50;5104432;28;20052;-67
2022/04/12 01:53:11;;;;;;;3.55;1.95;;;;;;;12.75;44.50;100977.09;5107874;28;20075;-67
2022/04/12 01:55:39;;;;;;;5.25;2.13;;;;;;;12.73;44.26;100971.94;5112457;28;20047;-67
2022/04/12 01:58:07;;;;;;;6.47;2.53;;;;;;;12.71;44.41;100964.09;5120457;28;20110;-66
2022/04/12 02:00:36;;;;;;;4.43;1.80;;;;;;;12.68;44.59;100959.16;5111851;28;20404;-66
2022/04/12 02:03:05;;;;;;;4.07;2.00;;;;;;;12.66;44.75;100963.97;5118447;28;20083;-67
2022/04/12 02:05:33;;;;;;;3.55;2.20;;;;;;;12.66;44.61;100974.75;5113190;28;20078;-66
2022/04/12 02:08:00;;;;;;;3.92;1.90;;;;;;;12.65;44.53;100978.50;5116302;28;20039;-66
2022/04/12 02:10:28;;;;;;;6.85;3.05;;;;;;;12.64;44.80;100971.47;5115586;28;20094;-67
2022/04/12 02:12:56;;;;;;;3.42;2.08;;;;;;;12.62;44.87;100973.56;5124209;28;20083;-67
2022/04/12 02:15:24;;;;;;;5.35;2.28;;;;;;;12.61;44.88;100971.94;5119328;28;20052;-67
2022/04/12 02:17:53;;;;;;;4.30;1.90;;;;;;;12.61;44.93;100971.09;5118598;28;20079;-66
2022/04/12 02:20:20;;;;;;;4.95;2.20;;;;;;;12.58;44.98;100972.38;5119567;28;20047;-66
2022/04/12 02:22:48;;;;;;;5.05;1.92;;;;;;;12.58;44.66;100958.09;5124665;28;20074;-66
2022/04/12 02:25:16;;;;;;;5.15;2.10;;;;;;;12.55;45.09;100964.75;5118914;28;20047;-67
2022/04/12 02:27:43;;;;;;;4.22;1.90;;;;;;;12.53;44.78;100964.19;5125018;28;20066;-66
2022/04/12 02:30:13;;;;;;;3.50;1.73;;;;;;;12.52;45.05;100964.41;5115989;28;20064;-68
2022/04/12 02:32:42;;;;;;;4.30;2.25;;;;;;;12.44;45.11;100948.56;5123088;28;20040;-67
2022/04/12 02:35:11;;;;;;;3.88;1.67;;;;;;;12.49;44.83;100956.78;5121674;28;20074;-66
2022/04/12 02:37:39;;;;;;;4.78;2.13;;;;;;;12.48;44.96;100955.97;5122812;28;20074;-65
2022/04/12 02:40:08;;;;;;;3.42;1.70;;;;;;;12.48;45.04;100953.25;5132765;27;20117;-67
2022/04/12 02:42:36;;;;;;;3.97;2.10;;;;;;;12.47;44.94;100953.50;5121378;28;20048;-67
2022/04/12 02:45:04;;;;;;;4.10;2.28;;;;;;;12.45;44.82;100956.44;5124957;27;20052;-67
2022/04/12 02:47:32;;;;;;;4.07;2.13;;;;;;;12.43;45.15;100953.13;5117486;28;20067;-67
2022/04/12 02:49:59;;;;;;;5.18;2.20;;;;;;;12.42;44.94;100951.50;5121108;28;20067;-67
2022/04/12 02:52:28;;;;;;;7.90;2.13;;;;;;;12.40;45.00;100950.91;5113919;28;20075;-67
2022/04/12 02:54:56;;;;;;;2.67;1.90;;;;;;;12.39;45.06;100946.56;5117509;28;20078;-68
2022/04/12 02:57:24;;;;;;;5.63;2.30;;;;;;;12.38;45.13;100945.75;5125037;28;20083;-67
2022/04/12 02:59:51;;;;;;;4.05;1.90;;;;;;;12.37;45.28;100940.59;5107987;28;20082;-68
2022/04/12 03:02:19;;;;;;;4.13;2.08;;;;;;;12.37;45.08;100940.59;5114025;28;20078;-68
2022/04/12 03:04:47;;;;;;;3.60;1.95;;;;;;;12.36;45.09;100945.16;5120021;27;20066;-67
2022/04/12 03:07:15;;;;;;;4.55;2.08;;;;;;;12.35;45.09;100948.91;5122220;28;20048;-67
2022/04/12 03:09:44;;;;;;;5.53;2.58;;;;;;;12.34;45.35;100933.78;5120058;28;20084;-68
2022/04/12 03:12:12;;;;;;;7.63;2.63;;;;;;;12.35;45.23;100931.91;5106351;28;20082;-68
2022/04/12 03:14:40;;;;;;;4.03;1.83;;;;;;;12.33;45.31;100934.84;5119248;27;20051;-68
2022/04/12 03:17:08;;;;;;;4.07;1.95;;;;;;;12.31;45.31;100938.81;5123766;27;20087;-67
2022/04/12 03:19:36;;;;;;;4.32;2.10;;;;;;;12.30;45.38;100929.91;5122552;28;20040;-68
2022/04/12 03:22:04;;;;;;;3.70;2.08;;;;;;;12.30;45.53;100921.00;5124153;28;20070;-68
2022/04/12 03:24:32;;;;;;;3.75;2.45;;;;;;;12.27;45.37;100911.50;5119223;28;20492;-68
2022/04/12 03:27:02;;;;;;;5.90;2.20;;;;;;;12.26;45.39;100907.16;5125437;28;20075;-68
2022/04/12 03:29:30;;;;;;;5.88;2.35;;;;;;;12.26;45.21;100899.09;5124575;28;20044;-68
2022/04/12 03:31:59;;;;;;;6.53;2.40;;;;;;;12.25;45.36;100910.09;5116313;28;20043;-68
2022/04/12 03:34:26;;;;;;;8.38;2.63;;;;;;;12.22;45.47;100905.16;5124575;28;20047;-67
2022/04/12 03:36:54;;;;;;;4.53;2.25;;;;;;;12.20;45.65;100907.28;5111300;28;20071;-68
2022/04/12 03:39:22;;;;;;;6.05;2.55;;;;;;;12.19;45.77;100909.16;5119372;28;20075;-67
2022/04/12 03:41:49;;;;;;;4.18;2.10;;;;;;;12.19;45.62;100906.44;5118684;28;20044;-67
2022/04/12 03:44:19;;;;;;;3.90;2.25;;;;;;;12.17;45.72;100903.16;5123258;28;20103;-66
2022/04/12 03:46:47;;;;;;;4.13;2.22;;;;;;;12.16;45.72;100906.09;5120466;28;20051;-67
2022/04/12 03:49:15;;;;;;;4.32;2.38;;;;;;;12.14;45.56;100909.03;5115964;28;20063;-67
2022/04/12 03:51:43;;;;;;;5.05;2.50;;;;;;;12.11;45.87;100901.44;5120898;28;20078;-67
2022/04/12 03:54:11;;;;;;;5.07;2.20;;;;;;;12.12;45.60;100908.47;5115681;28;20087;-66
2022/04/12 03:56:38;;;;;;;6.45;2.88;;;;;;;12.12;45.73;100894.16;5122313;28;20055;-67
2022/04/12 03:59:06;;;;;;;4.95;2.45;;;;;;;12.11;45.77;100892.53;5119121;28;20062;-67
2022/04/12 04:01:35;;;;;;;4.45;2.53;;;;;;;12.08;45.79;100893.81;5122263;28;20071;-67
2022/04/12 04:04:03;;;;;;;6.47;2.30;;;;;;;12.06;45.83;100893.22;5122467;28;20104;-66
2022/04/12 04:06:31;;;;;;;3.15;2.00;;;;;;;12.06;45.77;100895.91;5118793;28;20047;-67
2022/04/12 04:08:59;;;;;;;6.30;2.60;;;;;;;12.05;45.93;100905.03;5111956;28;20063;-67
2022/04/12 04:11:26;;;;;;;6.43;3.20;;;;;;;12.04;46.03;100904.22;5122270;28;20051;-67
2022/04/12 04:13:55;;;;;;;3.95;2.10;;;;;;;12.02;45.91;100900.94;5109934;28;20075;-68
2022/04/12 04:16:23;;;;;;;3.67;2.08;;;;;;;12.02;45.83;100905.50;5074497;28;1065745;-67
2022/04/12 04:18:52;;;;;;;6.15;2.35;;;;;;;11.99;45.88;100896.00;5109034;28;20101;-68
2022/04/12 04:21:20;;;;;;;7.18;2.55;;;;;;;11.98;46.04;100899.75;5117478;28;20052;-67
2022/04/12 04:23:47;;;;;;;6.18;2.35;;;;;;;12.00;46.14;100910.28;5115830;28;20051;-68
2022/04/12 04:26:15;;;;;;;4.57;2.17;;;;;;;11.85;45.97;100882.97;5125487;27;20246;-67
2022/04/12 04:28:44;;;;;;;5.38;2.85;;;;;;;11.93;46.03;100888.84;5115150;28;20075;-66
2022/04/12 04:31:12;;;;;;;4.72;2.38;;;;;;;11.94;46.19;100887.78;5120187;28;20055;-66
2022/04/12 04:33:41;;;;;;;4.47;2.45;;;;;;;11.94;46.08;100886.97;5123346;28;20456;-66
2022/04/12 04:36:10;;;;;;;4.85;2.35;;;;;;;11.95;46.15;100894.81;5115074;28;20048;-67
2022/04/12 04:38:37;;;;;;;4.93;2.95;;;;;;;11.95;46.02;100899.38;5110762;28;20110;-67
2022/04/12 04:41:05;;;;;;;3.95;2.53;;;;;;;11.92;46.18;100903.38;5119459;28;20066;-67
2022/04/12 04:43:36;;;;;;;4.15;2.75;;;;;;;11.87;46.24;100895.16;5124086;28;20097;-67
2022/04/12 04:46:03;;;;;;;6.07;2.47;;;;;;;11.91;46.10;100911.66;5120647;28;20078;-67
2022/04/12 04:48:31;;;;;;;6.45;3.28;;;;;;;11.88;46.28;100917.50;5120584;28;20043;-67
2022/04/12 04:50:59;;;;;;;5.82;2.65;;;;;;;11.87;46.32;100930.16;5123314;28;20064;-67
2022/04/12 04:53:28;;;;;;;4.03;2.28;;;;;;;11.87;46.22;100932.03;5118493;28;20047;-66
2022/04/12 04:55:56;;;;;;;5.63;2.50;;;;;;;11.87;46.27;100937.41;5117647;27;20079;-66
2022/04/12 04:58:23;;;;;;;6.05;2.50;;;;;;;11.85;46.29;100931.44;5116206;27;20052;-66
2022/04/12 05:00:51;;;;;;;5.13;2.80;;;;;;;11.85;46.29;100936.81;5109549;28;20090;-68
2022/04/12 05:03:19;;;;;;;4.22;2.35;;;;;;;11.85;46.23;100934.13;5115625;28;20093;-66
2022/04/12 05:05:47;;;;;;;4.60;2.70;;;;;;;11.83;46.36;100933.53;5115574;27;20043;-68
2022/04/12 05:08:14;;;;;;;6.53;2.72;;;;;;;11.82;46.36;100927.31;5117349;27;20055;-67
2022/04/12 05:10:43;;;;;;;4.72;2.55;;;;;;;11.81;46.39;100932.94;5118296;28;20072;-66
2022/04/12 05:13:11;;;;;;;5.68;3.05;;;;;;;11.80;46.44;100928.59;5115368;28;20076;-66
2022/04/12 05:15:39;;;;;;;7.68;3.05;;;;;;;11.74;46.46;100930.31;5121838;28;20047;-66
2022/04/12 05:18:07;;;;;;;7.40;2.67;;;;;;;11.77;46.63;100931.72;5118170;28;20103;-66
2022/04/12 05:20:35;;;;;;;4.30;2.55;;;;;;;11.75;46.43;100929.25;5107056;28;20063;-66
2022/04/12 05:23:02;;;;;;;6.47;2.90;;;;;;;11.60;46.41;100897.34;5109223;28;20075;-66
2022/04/12 05:25:30;;;;;;;8.27;2.67;;;;;;;11.73;46.54;100932.19;5120410;28;20103;-67
2022/04/12 05:27:59;;;;;;;7.22;3.25;;;;;;;11.73;46.67;100923.28;5116831;28;20086;-67
2022/04/12 05:30:27;;;;;;;7.03;3.60;;;;;;;11.71;46.69;100912.72;5115519;28;20480;-67
2022/04/12 05:32:55;;;;;;;5.22;2.88;;;;;;;11.68;46.67;100910.50;5118591;28;20055;-66
2022/04/12 05:35:23;;;;;;;4.70;2.47;;;;;;;11.70;46.70;100912.97;5113426;28;20103;-66
2022/04/12 05:37:52;;;;;;;5.97;2.67;;;;;;;11.71;46.67;100920.81;5113272;28;20039;-67
2022/04/12 05:40:21;;;;;;;5.18;3.22;;;;;;;11.70;46.83;100907.56;5110152;28;20063;-65
2022/04/12 05:42:51;;;;;;;4.20;2.58;;;;;;;11.70;46.89;100912.97;5111822;28;20052;-69
2022/04/12 05:45:20;;;;;;;5.07;3.00;;;;;;;11.69;46.91;100917.53;5109378;28;20052;-64
2022/04/12 05:47:49;;;;;;;8.75;3.03;;;;;;;11.68;46.97;100915.88;5113997;28;20067;-64
2022/04/12 05:50:18;;;;;;;5.20;2.78;;;;;;;11.68;46.83;100921.25;4759608;28;10000516;-65
2022/04/12 05:52:47;;;;;;;6.43;2.75;;;;;;;11.69;46.54;100922.09;5109118;28;20351;-65
2022/04/12 05:55:16;;;;;;;4.75;2.58;;;;;;;11.68;46.90;100923.97;5114656;28;20036;-64
2022/04/12 05:57:52;;;;;;;6.57;2.92;;;;;;;11.68;46.80;100920.44;5110545;28;20051;-65
2022/04/12 06:00:22;;;;;;;5.28;3.20;;;;;;;11.68;46.85;100925.84;5127595;28;20055;-64
2022/04/12 06:02:52;;;;;;;7.32;2.65;;;;;;;11.67;46.90;100916.94;5112117;28;20078;-63
2022/04/12 06:05:21;;;;;;;8.05;3.65;;;;;;;11.67;46.58;100918.81;5112029;28;20082;-63
2022/04/12 06:07:49;;;;;;;5.70;2.78;;;;;;;11.67;46.94;100916.94;5097836;28;20096;-64
2022/04/12 06:10:19;;;;;;;7.42;3.38;;;;;;;11.68;46.97;100932.03;4760639;28;10000657;-65
2022/04/12 06:12:47;;;;;;;6.28;3.60;;;;;;;11.67;47.13;100924.19;5115710;28;20064;-65
2022/04/12 06:15:15;;;;;;;6.75;3.00;;;;;;;11.59;47.29;100917.25;5121582;28;20063;-65
2022/04/12 06:17:44;;;;;;;7.25;2.95;;;;;;;11.69;47.04;100922.09;5122816;28;20418;-65
2022/04/12 06:20:14;;;;;;;6.55;3.45;;;;;;;11.73;47.01;100925.97;5119135;28;20127;-65
2022/04/12 06:22:42;;;;;;;5.53;3.42;;;;;;;11.74;47.20;100925.75;5122424;28;20054;-65
2022/04/12 06:25:11;;;;;;;6.68;2.72;;;;;;;11.75;47.07;100921.19;5121409;28;20116;-65
2022/04/12 06:27:40;;;;;;;5.68;2.22;;;;;;;11.79;47.14;100935.03;5123348;28;20054;-65
2022/04/12 06:30:10;;;;;;;6.10;2.85;;;;;;;11.80;47.12;100929.44;5115718;28;20086;-64
2022/04/12 06:32:38;;;;;;;8.43;3.00;;;;;;;11.82;47.22;100932.72;5123472;28;20047;-64
2022/04/12 06:35:10;;;;;;;5.15;2.63;;;;;;;11.84;47.13;100943.25;5119812;28;20047;-64
2022/04/12 06:37:39;;;;;;;5.72;2.58;;;;;;;11.86;47.17;100949.25;5112245;28;20491;-64
2022/04/12 06:40:09;;;;;;;5.90;2.80;;;;;;;11.83;47.16;100942.44;5119046;28;20113;-65
2022/04/12 06:42:37;;;;;;;5.10;3.05;;;;;;;11.89;47.33;100944.22;5115519;28;20434;-64
2022/04/12 06:45:07;;;;;;;3.97;2.58;;;;;;;11.92;47.35;100941.06;5122812;28;20081;-64
2022/04/12 06:47:35;;;;;;;5.22;2.70;;;;;;;11.96;47.30;100936.03;5119194;28;20558;-65
2022/04/12 06:50:05;;;;;;;5.95;2.58;;;;;;;11.84;47.33;100906.38;5122988;28;20157;-65
2022/04/12 06:52:34;;;;;;;4.90;2.50;;;;;;;11.99;47.44;100933.72;5122452;28;20480;-65
2022/04/12 06:55:02;;;;;;;6.80;2.40;;;;;;;12.01;47.42;100928.91;5109953;28;20047;-65
2022/04/12 06:57:31;;;;;;;2.92;2.28;;;;;;;12.06;47.92;100925.53;5124554;28;20127;-65
2022/04/12 06:59:59;;;;;;;8.65;2.85;;;;;;;12.09;47.47;100921.56;5126220;28;20500;-65
2022/04/12 07:02:27;;;;;;;6.68;2.53;;;;;;;12.10;47.51;100923.22;5126919;28;20051;-65
2022/04/12 07:04:55;;;;;;;6.80;2.70;;;;;;;12.13;47.64;100923.56;5124238;28;20083;-65
2022/04/12 07:07:23;;;;;;;5.93;2.70;;;;;;;12.16;47.45;100924.94;5127064;27;20051;-64
2022/04/12 07:09:52;;;;;;;6.28;2.45;;;;;;;12.16;47.68;100922.25;5111177;27;20047;-65
2022/04/12 07:12:20;;;;;;;4.35;2.33;;;;;;;12.18;47.58;100922.84;5106140;28;20136;-65
2022/04/12 07:14:48;;;;;;;6.07;2.60;;;;;;;12.19;47.75;100925.31;5118641;28;20044;-65
2022/04/12 07:17:21;;;;;;;6.72;2.30;;;;;;;12.21;47.73;100925.91;5118101;28;20059;-65
2022/04/12 07:19:48;;;;;;;5.03;2.53;;;;;;;12.24;47.86;100927.31;5118792;28;20079;-65
2022/04/12 07:22:16;;;;;;;6.05;3.00;;;;;;;12.22;47.64;100919.47;5119445;28;20055;-65
2022/04/12 07:24:44;;;;;;;5.53;2.65;;;;;;;12.28;47.96;100923.94;5126046;28;20044;-65
2022/04/12 07:27:13;;;;;;;3.53;2.20;;;;;;;12.32;47.78;100922.41;5120571;28;20103;-65
2022/04/12 07:29:41;;;;;;;5.05;3.10;;;;;;;12.35;47.89;100924.66;5120872;27;20599;-65
2022/04/12 07:32:09;;;;;;;4.57;2.58;;;;;;;12.37;47.81;100919.03;5109635;28;20094;-65
2022/04/12 07:34:37;;;;;;;4.88;2.70;;;;;;;12.38;47.92;100920.66;5113085;28;20139;-66
2022/04/12 07:37:05;;;;;;;4.55;2.33;;;;;;;12.39;47.94;100925.00;5108411;28;20370;-67
2022/04/12 07:39:33;;;;;;;3.83;2.50;;;;;;;12.41;48.11;100917.50;5130626;27;20138;-65
2022/04/12 07:42:01;;;;;;;8.05;2.25;;;;;;;12.38;48.32;100909.88;5114596;27;20092;-65
2022/04/12 07:44:36;;;;;;;6.03;2.90;;;;;;;12.45;48.20;100920.56;5105315;28;20373;-64
2022/04/12 07:47:05;;;;;;;4.15;2.40;;;;;;;12.46;48.12;100927.59;5110035;28;20075;-65
2022/04/12 07:49:32;;;;;;;4.05;2.65;;;;;;;12.47;48.36;100921.16;5121013;28;20073;-65
2022/04/12 07:52:00;;;;;;;6.20;2.60;;;;;;;12.44;48.41;100919.75;5105019;28;20075;-65
2022/04/12 07:54:28;;;;;;;3.42;2.08;;;;;;;12.50;48.48;100924.19;5104619;28;20448;-65
2022/04/12 07:56:56;;;;;;;5.60;2.45;;;;;;;12.53;48.74;100918.34;5105358;28;20085;-65
2022/04/12 07:59:23;;;;;;;4.68;2.40;;;;;;;12.64;48.85;100920.22;5116952;28;20052;-65
2022/04/12 08:01:53;;;;;;;10.68;2.80;;;;;;;12.69;48.93;100922.22;5124695;27;20185;-65
2022/04/12 08:04:20;;;;;;;4.20;2.25;;;;;;;12.67;48.72;100927.84;5116562;27;20044;-65
2022/04/12 08:06:48;;;;;;;3.88;2.10;;;;;;;12.68;49.17;100926.81;5125267;28;20480;-65
2022/04/12 08:09:16;;;;;;;5.85;2.42;;;;;;;12.68;49.03;100920.59;5117097;28;20079;-64
2022/04/12 08:11:44;;;;;;;4.38;2.08;;;;;;;12.70;49.38;100918.47;5125695;28;20456;-64
2022/04/12 08:14:11;;;;;;;3.88;2.33;;;;;;;12.71;49.27;100925.50;5132973;27;20042;-65
2022/04/12 08:16:39;;;;;;;3.95;2.38;;;;;;;12.75;49.54;100924.00;5105657;27;20075;-65
2022/04/12 08:19:08;;;;;;;3.90;2.03;;;;;;;12.81;50.52;100939.22;5120669;28;20054;-65
2022/04/12 08:21:38;;;;;;;3.92;2.00;;;;;;;12.98;49.71;100932.06;5125357;28;20074;-65
2022/04/12 08:24:07;;;;;;;3.05;1.80;;;;;;;13.08;50.08;100931.50;5124561;28;20120;-65
2022/04/12 08:26:35;;;;;;;5.05;1.80;;;;;;;13.11;50.34;100932.88;5117779;28;20052;-64
2022/04/12 08:29:03;;;;;;;2.85;1.50;;;;;;;13.10;49.83;100937.47;5111381;28;20083;-65
2022/04/12 08:31:31;;;;;;;2.40;1.50;;;;;;;13.09;50.57;100926.91;5112170;28;20073;-65
2022/04/12 08:33:59;;;;;;;3.45;1.40;;;;;;;13.10;50.81;100925.84;5123872;28;20043;-65
2022/04/12 08:36:28;;;;;;;3.20;1.75;;;;;;;13.17;50.35;100924.69;5114749;27;20068;-65
2022/04/12 08:38:56;;;;;;;5.55;1.70;;;;;;;13.12;50.12;100915.63;5113717;28;20138;-65
2022/04/12 08:41:26;;;;;;;3.42;1.58;;;;;;;13.08;50.18;100917.19;5104899;28;20079;-65
2022/04/12 08:43:57;;;;;;;3.08;1.40;;;;;;;13.12;50.37;100911.06;5104317;28;20081;-65
2022/04/12 08:46:27;;;;;;;4.32;2.03;;;;;;;13.13;50.58;100910.00;5114307;28;20048;-65
2022/04/12 08:48:56;;;;;;;3.53;1.90;;;;;;;13.11;50.34;100904.03;5123754;28;20059;-64
2022/04/12 08:51:27;;;;;;;2.58;1.30;;;;;;;13.10;51.38;100896.16;5122112;28;20048;-65
2022/04/12 08:53:58;;;;;;;2.85;1.65;;;;;;;13.18;51.24;100887.75;5117606;28;20060;-66
2022/04/12 08:56:29;;;;;;;7.45;1.90;;;;;;;13.19;51.26;100895.59;5125054;28;20158;-65
2022/04/12 08:58:57;;;;;;;2.83;1.92;;;;;;;13.26;51.28;100899.00;5121412;27;20049;-65
2022/04/12 09:01:41;;;;;;;7.40;1.55;;;;;;;13.30;51.44;100888.53;5115622;28;20139;-65
2022/04/12 09:04:10;;;;;;;4.97;1.75;;;;;;;13.33;50.90;100898.84;5111646;28;20055;-65
2022/04/12 09:06:49;;;;;;;3.67;1.63;;;;;;;13.37;51.18;100897.31;5116996;28;20056;-65
2022/04/12 09:09:19;;;;;;;8.90;2.08;;;;;;;13.38;51.69;100895.44;5119497;28;20071;-64
2022/04/12 09:11:57;;;;;;;3.13;1.50;;;;;;;13.32;51.12;100887.25;5128500;27;20054;-64
2022/04/12 09:14:26;;;;;;;4.88;1.83;;;;;;;13.37;51.58;100885.69;5124069;28;20498;-64
2022/04/12 09:16:53;;;;;;;6.65;2.00;;;;;;;13.38;51.34;100880.06;5124233;28;20047;-65
2022/04/12 09:19:40;;;;;;;3.85;1.70;;;;;;;13.43;51.52;100865.84;5123964;28;20087;-66
2022/04/12 09:22:12;;;;;;;3.53;1.60;;;;;;;13.44;51.48;100868.31;5120151;28;20047;-66
2022/04/12 09:24:49;;;;;;;3.60;1.70;;;;;;;13.46;51.44;100863.50;5123441;28;20075;-66
2022/04/12 09:27:19;;;;;;;4.05;1.73;;;;;;;13.49;51.50;100862.19;5118641;28;20051;-67
2022/04/12 09:29:49;;;;;;;3.75;1.92;;;;;;;13.56;51.73;100855.59;5123654;28;20040;-65
2022/04/12 09:32:20;;;;;;;2.65;1.58;;;;;;;13.52;52.00;100834.69;5122122;28;20075;-65
2022/04/12 09:34:48;;;;;;;4.03;1.60;;;;;;;13.66;51.86;100863.06;5123459;28;20052;-65
2022/04/12 09:37:26;;;;;;;3.33;1.90;;;;;;;13.68;51.91;100856.34;5114546;28;20074;-65
2022/04/12 09:40:05;;;;;;;2.78;1.60;;;;;;;13.71;51.68;100857.75;5108106;28;20149;-65
2022/04/12 09:42:44;;;;;;;4.30;1.98;;;;;;;13.76;52.03;100857.03;5121232;28;20043;-65
2022/04/12 09:45:13;;;;;;;3.25;1.48;;;;;;;13.83;52.44;100857.69;5109026;28;20040;-65
2022/04/12 09:47:42;;;;;;;3.38;1.50;;;;;;;13.87;51.93;100858.81;5119009;28;20047;-65
2022/04/12 09:50:31;;;;;;;4.25;2.28;;;;;;;13.89;51.79;100860.22;5123837;28;20052;-66
2022/04/12 09:53:00;;;;;;;4.32;1.73;;;;;;;13.95;52.11;100861.13;5119323;28;20048;-65
2022/04/12 09:55:37;;;;;;;3.22;1.55;;;;;;;13.97;52.30;100870.63;5122295;28;20683;-66
2022/04/12 09:58:12;;;;;;;2.95;1.60;;;;;;;14.06;52.29;100867.50;5120372;28;20047;-65
2022/04/12 10:00:41;;;;;;;4.97;2.05;;;;;;;14.08;52.20;100858.09;5121362;28;20070;-64
2022/04/12 10:03:12;;;;;;;4.50;1.60;;;;;;;14.18;51.61;100849.34;5117045;28;20043;-64
2022/04/12 10:05:40;;;;;;;3.70;1.70;;;;;;;14.23;51.70;100846.72;5120645;28;20071;-65
2022/04/12 10:08:11;;;;;;;7.75;1.88;;;;;;;14.23;52.34;100844.03;5114598;28;20057;-64
2022/04/12 10:10:44;;;;;;;3.63;1.63;;;;;;;14.30;52.43;100831.16;5121292;28;20108;-64
2022/04/12 10:13:13;;;;;;;2.25;1.42;;;;;;;14.25;52.01;100823.78;5118135;28;20044;-64
2022/04/12 10:15:42;;;;;;;3.85;1.75;;;;;;;14.33;52.12;100830.66;5121410;28;20040;-64
2022/04/12 10:18:11;;;;;;;4.05;1.90;;;;;;;14.39;52.21;100832.38;5120974;28;20052;-65
2022/04/12 10:20:40;;;;;;;4.93;1.90;;;;;;;14.50;52.21;100838.78;5109854;28;20136;-65
2022/04/12 10:23:17;;;;;;;2.90;1.83;;;;;;;14.56;52.35;100835.09;5111720;28;20111;-66
2022/04/12 10:25:49;;;;;;;3.28;1.50;;;;;;;14.57;51.98;100828.63;5109363;28;20036;-66
2022/04/12 10:28:18;;;;;;;5.57;1.50;;;;;;;14.65;52.37;100820.06;5112581;28;20067;-67
2022/04/12 10:30:46;;;;;;;5.82;1.63;;;;;;;14.93;51.88;100819.09;5116352;28;20461;-65
2022/04/12 10:33:21;;;;;;;4.38;1.60;;;;;;;14.84;51.64;100809.78;5119986;28;20040;-65
2022/04/12 10:35:59;;;;;;;5.75;1.60;;;;;;;14.84;51.89;100809.78;5115311;28;20051;-65
2022/04/12 10:38:38;;;;;;;7.40;1.80;;;;;;;14.89;51.97;100812.56;5117010;28;20125;-66
2022/04/12 10:41:14;;;;;;;6.05;1.90;;;;;;;14.82;52.09;100796.50;5122291;28;20050;-66
2022/04/12 10:43:42;;;;;;;5.45;2.13;;;;;;;14.94;51.98;100815.31;5127237;28;20055;-66
2022/04/12 10:46:12;;;;;;;6.95;1.88;;;;;;;14.98;52.18;100814.56;5124022;28;20062;-66
2022/04/12 10:48:40;;;;;;;4.82;1.70;;;;;;;15.04;52.64;100814.63;5133247;27;20051;-66
2022/04/12 10:51:08;;;;;;;2.97;1.35;;;;;;;15.07;52.43;100803.31;5107202;27;20048;-66
2022/04/12 10:53:56;;;;;;;4.03;1.60;;;;;;;15.13;52.45;100797.69;5106086;28;20065;-67
2022/04/12 10:56:26;;;;;;;3.70;1.60;;;;;;;15.18;52.44;100795.03;5116387;28;20052;-67
2022/04/12 10:58:54;;;;;;;4.38;1.83;;;;;;;15.23;52.17;100800.53;5125902;28;20070;-66
2022/04/12 11:01:30;;;;;;;4.25;2.20;;;;;;;15.29;52.37;100801.41;5126955;28;20059;-65
2022/04/12 11:04:00;;;;;;;6.00;1.70;;;;;;;15.34;52.36;100804.16;5116145;28;20053;-66
2022/04/12 11:06:29;;;;;;;5.00;1.88;;;;;;;15.39;52.04;100806.91;5126543;28;20047;-66
2022/04/12 11:09:10;;;;;;;5.72;1.50;;;;;;;15.44;52.15;100806.16;5127286;27;20093;-66
2022/04/12 11:11:41;;;;;;;5.57;1.73;;;;;;;15.49;52.06;100806.22;5128315;27;20142;-66
2022/04/12 11:14:25;;;;;;;3.10;1.50;;;;;;;15.57;52.18;100805.78;5126237;28;20052;-65
2022/04/12 11:16:57;;;;;;;3.42;1.70;;;;;;;15.66;51.67;100808.81;5124452;28;20056;-66
2022/04/12 11:19:25;;;;;;;7.57;2.00;;;;;;;15.70;51.86;100815.34;5126197;27;20476;-65
2022/04/12 11:22:04;;;;;;;4.45;1.52;;;;;;;15.74;51.45;100794.81;5106437;28;20041;-66
2022/04/12 11:24:32;;;;;;;4.20;1.52;;;;;;;15.77;51.46;100799.72;5106120;28;20494;-65
2022/04/12 11:27:07;;;;;;;4.03;1.65;;;;;;;15.80;51.26;100797.31;5126672;28;20138;-66
2022/04/12 11:29:37;;;;;;;4.10;1.40;;;;;;;15.88;51.09;100804.16;5124925;27;20082;-66
2022/04/12 11:32:06;;;;;;;3.17;1.70;;;;;;;15.91;51.32;100782.75;5117579;28;20048;-66
2022/04/12 11:34:37;;;;;;;7.88;1.80;;;;;;;15.95;51.07;100775.75;5122903;28;20094;-66